Time;durP1;ratioP1;P1;durP2;ratioP2;P2;SDS_P1;SDS_P2;PMS_P1;PMS_P2;Temp;Humidity;BMP_temperature;BMP_pressure;BME280_temperature;BME280_humidity;BME280_pressure;Samples;Min_cycle;Max_cycle;Signal;HPM_P1;HPM_P2
2021/01/04 00:02:21;;;;;;;5.68;3.28;;;;;;;1.65;100.00;101552.25;6236085;28;20045;-78
2021/01/04 00:05:30;;;;;;;7.80;3.75;;;;;;;1.64;100.00;101557.47;6233343;28;20053;-78
2021/01/04 00:09:05;;;;;;;9.15;3.90;;;;;;;1.64;100.00;101555.72;6232966;28;20049;-77
2021/01/04 00:12:12;;;;;;;8.52;3.47;;;;;;;1.65;100.00;101554.00;6136550;29;20186;-78
2021/01/04 00:15:19;;;;;;;6.45;3.45;;;;;;;1.72;100.00;101551.34;6234232;28;20041;-79
2021/01/04 00:18:36;;;;;;;5.95;3.45;;;;;;;1.68;100.00;101551.38;6238416;28;20049;-78
2021/01/04 00:21:45;;;;;;;6.07;3.42;;;;;;;1.64;100.00;101541.91;6236763;28;20045;-78
2021/01/04 00:24:49;;;;;;;10.30;3.78;;;;;;;1.66;100.00;101546.19;6235559;28;20042;-78
2021/01/04 00:27:57;;;;;;;6.90;3.40;;;;;;;1.63;100.00;101538.44;6232483;28;20057;-79
2021/01/04 00:31:04;;;;;;;7.43;3.53;;;;;;;1.69;100.00;101550.53;6232303;28;20049;-78
2021/01/04 00:34:11;;;;;;;7.18;3.78;;;;;;;1.67;100.00;101545.31;6233071;28;20050;-78
2021/01/04 00:37:53;;;;;;;7.90;4.20;;;;;;;1.65;100.00;101543.63;6231680;28;20046;-79
2021/01/04 00:41:07;;;;;;;8.27;3.50;;;;;;;1.62;100.00;101551.41;6231968;28;20054;-79
2021/01/04 00:44:16;;;;;;;7.25;3.92;;;;;;;1.69;100.00;101553.97;6229808;28;20052;-77
2021/01/04 00:47:27;;;;;;;6.85;3.47;;;;;;;1.60;100.00;101551.41;6232310;28;20049;-79
2021/01/04 00:50:42;;;;;;;7.13;4.03;;;;;;;1.57;100.00;101551.41;6233198;28;20050;-79
2021/01/04 00:53:45;;;;;;;8.43;4.00;;;;;;;1.65;100.00;101552.25;6243266;28;20103;-78
2021/01/04 00:57:00;;;;;;;8.27;3.88;;;;;;;1.56;100.00;101551.44;6246252;28;20410;-78
2021/01/04 01:00:12;;;;;;;7.82;4.25;;;;;;;1.58;100.00;101554.88;6246340;28;20507;-78
2021/01/04 01:03:28;;;;;;;9.30;4.43;;;;;;;1.54;100.00;101556.59;6246463;28;20145;-77
2021/01/04 01:06:36;;;;;;;7.72;3.97;;;;;;;1.54;100.00;101551.41;6245809;28;20054;-77
2021/01/04 01:09:41;;;;;;;8.23;4.10;;;;;;;1.58;100.00;101558.31;6221422;28;20410;-78
2021/01/04 01:12:48;;;;;;;9.75;4.82;;;;;;;1.55;100.00;101554.91;6226125;28;20132;-78
2021/01/04 01:16:04;;;;;;;8.82;4.55;;;;;;;1.62;100.00;101562.63;6226585;28;20049;-78
2021/01/04 01:19:13;;;;;;;9.48;4.35;;;;;;;1.57;100.00;101560.91;6226137;28;20421;-77
2021/01/04 01:22:19;;;;;;;10.75;4.40;;;;;;;1.58;100.00;101565.22;6237682;28;20076;-78
2021/01/04 01:25:22;;;;;;;9.52;4.43;;;;;;;1.58;100.00;101568.69;6250870;28;20056;-77
2021/01/04 01:28:50;;;;;;;10.63;4.95;;;;;;;1.57;100.00;101568.69;6250627;28;20049;-77
2021/01/04 01:32:11;;;;;;;8.77;4.47;;;;;;;1.57;100.00;101573.88;6248990;28;20056;-77
2021/01/04 01:35:24;;;;;;;11.45;4.70;;;;;;;1.58;100.00;101573.84;6250875;28;20052;-77
2021/01/04 01:38:39;;;;;;;8.73;4.75;;;;;;;1.54;100.00;101572.13;6250266;28;20438;-77
2021/01/04 01:42:05;;;;;;;14.52;4.72;;;;;;;1.63;100.00;101579.88;6250935;28;20050;-77
2021/01/04 01:45:16;;;;;;;12.70;5.00;;;;;;;1.57;100.00;101584.22;6250262;28;20418;-77
2021/01/04 01:48:32;;;;;;;10.55;4.43;;;;;;;1.57;100.00;101586.81;6250023;28;20088;-77
2021/01/04 01:51:50;;;;;;;11.25;5.05;;;;;;;1.63;100.00;101579.88;6250228;28;20041;-77
2021/01/04 01:55:02;;;;;;;10.73;4.88;;;;;;;1.62;100.00;101588.53;6250169;28;20107;-77
2021/01/04 01:58:38;;;;;;;11.73;5.10;;;;;;;1.63;100.00;101585.06;6250279;28;20049;-77
2021/01/04 02:01:49;;;;;;;10.45;5.25;;;;;;;1.65;100.00;101585.06;6250399;28;20046;-77
2021/01/04 02:05:01;;;;;;;9.48;4.50;;;;;;;1.62;100.00;101587.66;6249970;28;20105;-77
2021/01/04 02:08:06;;;;;;;8.88;4.20;;;;;;;1.63;100.00;101581.63;6249616;28;20064;-78
2021/01/04 02:11:17;;;;;;;10.10;4.57;;;;;;;1.61;100.00;101584.22;6249360;28;20056;-78
2021/01/04 02:14:27;;;;;;;8.95;4.35;;;;;;;1.62;100.00;101570.38;6249724;28;20141;-77
2021/01/04 02:18:02;;;;;;;10.82;4.65;;;;;;;1.60;100.00;101574.72;6249585;28;20521;-77
2021/01/04 02:21:47;;;;;;;12.55;4.95;;;;;;;1.63;100.00;101569.53;6249127;28;20677;-77
2021/01/04 02:24:48;;;;;;;10.13;5.05;;;;;;;1.67;100.00;101578.16;6244425;28;20053;-77
2021/01/04 02:27:55;;;;;;;8.57;4.22;;;;;;;1.63;100.00;101573.84;6248862;28;20045;-77
2021/01/04 02:30:57;;;;;;;11.02;4.93;;;;;;;1.64;100.00;101576.44;6249157;28;20422;-77
2021/01/04 02:33:58;;;;;;;9.40;4.72;;;;;;;1.63;100.00;101573.84;6249526;28;20061;-77
2021/01/04 02:37:00;;;;;;;8.05;3.78;;;;;;;1.61;100.00;101570.41;6248991;28;20099;-77
2021/01/04 02:40:05;;;;;;;10.20;4.47;;;;;;;1.60;100.00;101571.28;6249206;28;20050;-77
2021/01/04 02:43:06;;;;;;;12.63;4.30;;;;;;;1.64;100.00;101567.81;6249048;28;20049;-77
2021/01/04 02:46:14;;;;;;;9.57;4.78;;;;;;;1.64;100.00;101570.41;6249009;28;20402;-78
2021/01/04 02:49:23;;;;;;;10.50;5.38;;;;;;;1.65;100.00;101572.97;6248456;28;20100;-77
2021/01/04 02:52:30;;;;;;;;;;;;;;;1.68;100.00;101574.69;6249386;28;20516;-77
2021/01/04 02:55:42;;;;;;;8.93;4.40;;;;;;;1.67;100.00;101579.00;6248681;28;19921;-77
2021/01/04 02:58:56;;;;;;;10.90;4.75;;;;;;;1.66;100.00;101579.03;6248426;28;20049;-77
2021/01/04 03:02:05;;;;;;;7.53;3.70;;;;;;;1.70;100.00;101579.00;6248863;28;20049;-77
2021/01/04 03:05:08;;;;;;;9.23;4.47;;;;;;;1.71;100.00;101580.72;6248707;28;20072;-77
2021/01/04 03:08:09;;;;;;;11.70;6.40;;;;;;;1.63;100.00;101574.69;6248324;28;20045;-77
2021/01/04 03:11:15;;;;;;;12.75;4.15;;;;;;;1.62;100.00;101579.91;6248188;28;20052;-76
2021/01/04 03:14:27;;;;;;;8.18;4.30;;;;;;;1.62;100.00;101566.94;6248477;28;20054;-77
2021/01/04 03:17:40;;;;;;;10.13;4.60;;;;;;;1.60;100.00;101572.13;6248187;28;20084;-77
2021/01/04 03:20:41;;;;;;;10.13;4.22;;;;;;;1.62;100.00;101574.72;6247695;28;20054;-77
2021/01/04 03:23:48;;;;;;;11.48;4.15;;;;;;;1.59;100.00;101570.44;6248103;28;20399;-76
2021/01/04 03:26:55;;;;;;;9.65;4.38;;;;;;;1.62;100.00;101570.38;6247948;28;20103;-77
2021/01/04 03:29:56;;;;;;;8.45;4.63;;;;;;;1.58;100.00;101570.41;6247922;28;20045;-77
2021/01/04 03:32:56;;;;;;;7.68;4.22;;;;;;;1.67;100.00;101572.97;6248063;28;20410;-77
2021/01/04 03:35:57;;;;;;;11.15;4.70;;;;;;;1.65;100.00;101569.53;6247376;28;20053;-77
2021/01/04 03:38:58;;;;;;;8.88;3.97;;;;;;;1.66;100.00;101572.09;6247601;28;20077;-77
2021/01/04 03:42:01;;;;;;;11.25;4.55;;;;;;;1.64;100.00;101573.84;6248177;28;20081;-77
2021/01/04 03:45:03;;;;;;;9.40;5.38;;;;;;;1.64;100.00;101573.00;6247522;28;20045;-77
2021/01/04 03:48:05;;;;;;;9.65;4.82;;;;;;;1.66;100.00;101566.06;6242677;28;20521;-77
2021/01/04 03:51:09;;;;;;;10.82;5.07;;;;;;;1.68;100.00;101574.69;6233929;28;20054;-76
2021/01/04 03:54:09;;;;;;;9.38;4.65;;;;;;;1.68;100.00;101572.09;6232849;28;20045;-77
2021/01/04 03:57:11;;;;;;;10.73;5.13;;;;;;;1.66;100.00;101566.94;6235338;28;20111;-76
2021/01/04 04:00:15;;;;;;;12.20;5.05;;;;;;;1.71;100.00;101562.59;6230874;28;20418;-77
2021/01/04 04:03:18;;;;;;;11.13;4.75;;;;;;;1.75;100.00;101563.44;6234145;28;20045;-76
2021/01/04 04:06:19;;;;;;;9.20;4.47;;;;;;;1.75;100.00;101568.63;6233667;28;20089;-76
2021/01/04 04:09:21;;;;;;;8.88;4.53;;;;;;;1.77;100.00;101565.19;6229385;28;20100;-77
2021/01/04 04:12:23;;;;;;;11.52;4.60;;;;;;;1.76;100.00;101565.16;6242386;28;20418;-76
2021/01/04 04:15:24;;;;;;;9.77;4.50;;;;;;;1.75;100.00;101559.13;6224987;28;20049;-76
2021/01/04 04:18:25;;;;;;;8.35;4.93;;;;;;;1.77;100.00;101567.78;6222372;28;20057;-76
2021/01/04 04:21:26;;;;;;;10.98;4.63;;;;;;;1.82;100.00;101565.16;6238710;28;20045;-77
2021/01/04 04:24:27;;;;;;;9.98;4.80;;;;;;;1.79;100.00;101559.97;6246898;28;20056;-77
2021/01/04 04:27:29;;;;;;;11.85;4.80;;;;;;;1.84;100.00;101567.72;6246451;28;20061;-76
2021/01/04 04:30:30;;;;;;;12.15;5.40;;;;;;;1.93;100.00;101554.72;6244322;28;20049;-76
2021/01/04 04:33:31;;;;;;;13.93;6.15;;;;;;;1.88;100.00;101559.94;6246968;28;20421;-76
2021/01/04 04:36:31;;;;;;;16.38;5.80;;;;;;;1.88;100.00;101561.66;6231727;28;20502;-76
2021/01/04 04:39:33;;;;;;;13.77;5.70;;;;;;;1.93;100.00;101563.38;6221736;28;20045;-76
2021/01/04 04:42:38;;;;;;;17.75;5.57;;;;;;;2.05;100.00;101564.19;6222152;28;20093;-76
2021/01/04 04:45:40;;;;;;;13.85;5.65;;;;;;;1.97;100.00;101569.41;6220954;28;20054;-76
2021/01/04 04:48:51;;;;;;;19.63;6.57;;;;;;;1.95;100.00;101565.94;6221563;28;20053;-76
2021/01/04 04:52:23;;;;;;;19.48;7.15;;;;;;;1.96;100.00;101558.19;6222027;28;20502;-76
2021/01/04 04:55:52;;;;;;;23.20;6.90;;;;;;;1.94;100.00;101567.66;6231979;28;20058;-77
2021/01/04 04:58:58;;;;;;;19.50;6.63;;;;;;;1.97;100.00;101562.47;6232053;28;20502;-77
2021/01/04 05:02:06;;;;;;;16.48;6.97;;;;;;;1.96;100.00;101565.94;6239347;28;20057;-77
2021/01/04 05:05:17;;;;;;;12.88;6.22;;;;;;;1.99;100.00;101565.91;6221968;28;20046;-77
2021/01/04 05:08:40;;;;;;;15.32;6.47;;;;;;;2.12;100.00;101568.47;6221497;28;20046;-77
2021/01/04 05:11:45;;;;;;;18.83;6.28;;;;;;;1.97;100.00;101567.66;6221999;28;20049;-77
2021/01/04 05:14:53;;;;;;;18.45;6.13;;;;;;;2.03;100.00;101569.38;6221797;28;20060;-77
2021/01/04 05:18:18;;;;;;;15.68;5.65;;;;;;;1.99;100.00;101573.69;6221655;28;20045;-77
2021/01/04 05:21:57;;;;;;;14.77;5.57;;;;;;;2.07;100.00;101570.22;6221302;28;20056;-77
2021/01/04 05:25:38;;;;;;;15.52;5.47;;;;;;;1.97;100.00;101574.59;6221502;28;20103;-76
2021/01/04 05:29:23;;;;;;;9.93;5.13;;;;;;;2.00;100.00;101569.41;6221022;28;20058;-76
2021/01/04 05:32:38;;;;;;;22.88;5.78;;;;;;;1.96;100.00;101570.28;6221461;28;20119;-77
2021/01/04 05:35:39;;;;;;;17.63;5.13;;;;;;;1.98;100.00;101569.38;6221445;28;20050;-77
2021/01/04 05:38:48;;;;;;;14.20;5.88;;;;;;;1.97;100.00;101570.25;6244931;28;20046;-77
2021/01/04 05:42:02;;;;;;;21.10;4.68;;;;;;;1.95;100.00;101573.72;6246028;28;20050;-77
2021/01/04 05:45:09;;;;;;;16.40;4.93;;;;;;;1.97;100.00;101575.44;6245947;28;20075;-76
2021/01/04 05:48:18;;;;;;;16.13;5.07;;;;;;;1.94;100.00;101583.22;6245190;28;20046;-76
2021/01/04 05:51:24;;;;;;;11.43;3.30;;;;;;;1.94;100.00;101574.59;6245457;28;20407;-77
2021/01/04 05:54:28;;;;;;;13.35;4.50;;;;;;;1.98;100.00;101574.56;6245476;28;20119;-77
2021/01/04 05:57:29;;;;;;;14.77;4.25;;;;;;;1.90;100.00;101573.72;6247225;28;20087;-77
2021/01/04 06:00:34;;;;;;;12.15;4.38;;;;;;;1.89;100.00;101582.38;6249478;28;20061;-76
2021/01/04 06:03:36;;;;;;;11.73;3.80;;;;;;;1.91;100.00;101582.41;6250308;28;20054;-77
2021/01/04 06:06:48;;;;;;;11.10;3.67;;;;;;;1.96;100.00;101586.69;6249856;28;20091;-77
2021/01/04 06:09:57;;;;;;;10.07;4.07;;;;;;;1.90;100.00;101578.06;6249311;28;20414;-77
2021/01/04 06:13:01;;;;;;;8.90;4.07;;;;;;;1.89;100.00;101579.78;6249939;28;20064;-77
2021/01/04 06:16:07;;;;;;;10.90;3.75;;;;;;;1.89;100.00;101578.94;6249714;28;20052;-77
2021/01/04 06:19:11;;;;;;;13.30;4.03;;;;;;;1.88;100.00;101570.31;6249827;28;20164;-77
2021/01/04 06:22:14;;;;;;;8.50;3.20;;;;;;;1.88;100.00;101570.31;6249848;28;20053;-77
2021/01/04 06:25:18;;;;;;;11.43;3.83;;;;;;;1.99;100.00;101572.84;6249698;28;20057;-77
2021/01/04 06:28:19;;;;;;;11.45;4.10;;;;;;;1.90;100.00;101578.06;6249308;28;20045;-77
2021/01/04 06:31:28;;;;;;;10.20;3.75;;;;;;;1.90;100.00;101581.50;6228220;28;20057;-76
2021/01/04 06:34:33;;;;;;;16.45;3.67;;;;;;;1.88;100.00;101575.50;6224860;28;20057;-77
2021/01/04 06:37:34;;;;;;;9.02;3.80;;;;;;;1.89;100.00;101572.03;6224525;28;20422;-77
2021/01/04 06:40:38;;;;;;;12.30;3.80;;;;;;;1.86;100.00;101584.13;6224521;28;20049;-77
2021/01/04 06:43:39;;;;;;;11.07;3.60;;;;;;;1.84;100.00;101589.31;6224789;28;20565;-78
2021/01/04 06:47:14;;;;;;;8.40;3.42;;;;;;;1.92;100.00;101587.56;6224338;28;20054;-77
2021/01/04 06:50:26;;;;;;;7.30;3.38;;;;;;;2.01;100.00;101595.31;6224174;28;20050;-77
2021/01/04 06:53:56;;;;;;;8.68;3.40;;;;;;;1.91;100.00;101593.63;6224700;28;20072;-78
2021/01/04 06:57:21;;;;;;;14.38;3.58;;;;;;;1.90;100.00;101598.78;6224146;28;20505;-78
2021/01/04 07:00:31;;;;;;;14.80;3.55;;;;;;;1.85;100.00;101597.94;6224004;28;20410;-79
2021/01/04 07:03:54;;;;;;;11.70;3.25;;;;;;;1.88;100.00;101601.41;6224333;28;20053;-78
2021/01/04 07:07:13;;;;;;;12.57;3.08;;;;;;;1.88;100.00;101603.13;6223918;28;20108;-76
2021/01/04 07:10:26;;;;;;;;;;;;;;;1.93;100.00;101603.97;6223456;28;20057;-78
2021/01/04 07:13:43;;;;;;;6.88;2.90;;;;;;;1.86;100.00;101608.31;6223971;28;19926;-77
2021/01/04 07:17:05;;;;;;;9.48;3.25;;;;;;;1.89;100.00;101608.31;6227212;28;20054;-78
2021/01/04 07:20:18;;;;;;;7.25;2.70;;;;;;;1.97;100.00;101614.31;6230648;28;20053;-77
2021/01/04 07:23:40;;;;;;;8.60;3.25;;;;;;;1.97;100.00;101618.66;6233551;28;20049;-77
2021/01/04 07:26:55;;;;;;;14.60;2.90;;;;;;;1.88;100.00;101616.94;6233528;28;20084;-78
2021/01/04 07:30:08;;;;;;;11.38;3.70;;;;;;;1.93;100.00;101617.78;6232923;28;20045;-77
2021/01/04 07:33:22;;;;;;;8.73;2.78;;;;;;;1.97;100.00;101614.31;6232946;28;20414;-77
2021/01/04 07:36:30;;;;;;;9.23;2.47;;;;;;;1.95;100.00;101628.16;6233147;28;20407;-77
2021/01/04 07:39:42;;;;;;;7.80;3.10;;;;;;;1.91;100.00;101627.31;6236442;28;20513;-76
2021/01/04 07:43:03;;;;;;;7.32;2.80;;;;;;;1.96;100.00;101627.31;6235473;28;20164;-78
2021/01/04 07:46:48;;;;;;;12.07;3.70;;;;;;;1.92;100.00;101623.84;6233595;28;20045;-78
2021/01/04 07:50:15;;;;;;;9.88;3.08;;;;;;;2.01;100.00;101626.41;6247359;28;20052;-76
2021/01/04 07:53:57;;;;;;;6.25;2.20;;;;;;;2.00;100.00;101619.50;6247375;28;20049;-76
2021/01/04 07:57:50;;;;;;;5.95;2.40;;;;;;;1.99;100.00;101627.28;6214502;28;20049;-75
2021/01/04 08:01:14;;;;;;;4.70;2.22;;;;;;;2.09;100.00;101630.69;6246817;28;20049;-76
2021/01/04 08:04:45;;;;;;;6.45;2.30;;;;;;;2.07;100.00;101628.09;6247396;28;20060;-76
2021/01/04 08:08:01;;;;;;;6.18;1.90;;;;;;;2.16;100.00;101624.63;6218981;28;20057;-75
2021/01/04 08:11:26;;;;;;;5.40;2.05;;;;;;;2.05;100.00;101626.41;6246942;28;20065;-77
2021/01/04 08:15:16;;;;;;;6.50;1.95;;;;;;;2.03;100.00;101635.03;6247103;28;20050;-77
2021/01/04 08:18:20;;;;;;;5.25;2.10;;;;;;;2.02;100.00;101635.91;6156761;28;20047;-77
2021/01/04 08:21:30;;;;;;;6.75;1.80;;;;;;;2.03;100.00;101626.41;6246472;28;20045;-75
2021/01/04 08:24:38;;;;;;;4.57;2.00;;;;;;;1.98;100.00;101634.19;6246838;28;20118;-76
2021/01/04 08:28:00;;;;;;;9.55;2.08;;;;;;;1.99;100.00;101630.72;6246570;28;20571;-75
2021/01/04 08:31:10;;;;;;;6.75;2.70;;;;;;;2.01;100.00;101643.69;6246344;28;20521;-75
2021/01/04 08:34:19;;;;;;;5.63;2.00;;;;;;;2.07;100.00;101633.28;6246515;28;20410;-76
2021/01/04 08:37:33;;;;;;;5.20;2.40;;;;;;;1.98;100.00;101631.59;6246284;28;20049;-75
2021/01/04 08:40:36;;;;;;;7.47;2.00;;;;;;;2.07;100.00;101643.66;6246448;28;20046;-75
2021/01/04 08:43:42;;;;;;;3.17;1.80;;;;;;;2.14;100.00;101639.34;6246385;28;20053;-75
2021/01/04 08:46:46;;;;;;;3.08;1.55;;;;;;;2.05;100.00;101636.78;6246212;28;20053;-76
2021/01/04 08:49:48;;;;;;;6.35;1.75;;;;;;;2.13;100.00;101635.84;6245818;28;20053;-76
2021/01/04 08:53:08;;;;;;;5.53;1.80;;;;;;;2.03;100.00;101632.44;6246631;28;20055;-76
2021/01/04 08:56:26;;;;;;;8.52;2.00;;;;;;;2.02;100.00;101643.69;6245924;28;20060;-76
2021/01/04 08:59:32;;;;;;;5.75;1.70;;;;;;;2.11;100.00;101635.00;6246068;28;20132;-75
2021/01/04 09:02:42;;;;;;;6.32;1.85;;;;;;;1.99;100.00;101643.69;6246572;28;20053;-76
2021/01/04 09:05:42;;;;;;;;;;;;;;;2.01;100.00;101656.66;6246464;28;20596;-76
2021/01/04 09:08:48;;;;;;;5.20;1.90;;;;;;;1.98;100.00;101651.47;6245490;28;19921;-76
2021/01/04 09:12:01;;;;;;;4.85;1.90;;;;;;;1.99;100.00;101655.78;6246302;28;20049;-77
2021/01/04 09:15:07;;;;;;;7.03;1.90;;;;;;;1.96;100.00;101663.59;6246084;28;20136;-77
2021/01/04 09:18:32;;;;;;;4.88;1.80;;;;;;;1.93;100.00;101664.44;6245559;28;20045;-78
2021/01/04 09:21:36;;;;;;;8.75;1.77;;;;;;;1.80;100.00;101670.53;6245605;28;20050;-78
2021/01/04 09:24:39;;;;;;;4.45;1.70;;;;;;;1.70;100.00;101674.00;6244728;28;20057;-79
2021/01/04 09:27:42;;;;;;;3.20;1.48;;;;;;;1.60;100.00;101670.56;6245300;28;20057;-77
2021/01/04 09:30:44;;;;;;;7.22;1.38;;;;;;;1.47;100.00;101674.91;6245365;28;20053;-77
2021/01/04 09:33:48;;;;;;;1.35;1.05;;;;;;;1.50;100.00;101671.47;6249328;28;20072;-78
2021/01/04 09:36:49;;;;;;;1.95;1.33;;;;;;;1.43;100.00;101675.78;6250038;28;20053;-76
2021/01/04 09:39:53;;;;;;;2.83;1.40;;;;;;;1.42;100.00;101679.22;6241380;28;20065;-77
2021/01/04 09:43:03;;;;;;;2.03;1.20;;;;;;;1.35;100.00;101680.09;6241770;28;20503;-75
2021/01/04 09:46:14;;;;;;;2.08;1.20;;;;;;;1.31;100.00;101680.09;6249575;28;20049;-75
2021/01/04 09:49:22;;;;;;;1.60;1.20;;;;;;;1.37;100.00;101680.97;6249735;28;20045;-76
2021/01/04 09:52:27;;;;;;;2.97;1.52;;;;;;;1.25;100.00;101681.81;6250387;28;20045;-75
2021/01/04 09:55:32;;;;;;;2.10;1.17;;;;;;;1.25;100.00;101680.97;6245521;28;20037;-75
2021/01/04 09:58:33;;;;;;;1.67;1.20;;;;;;;1.17;100.00;101683.53;6249399;28;20041;-75
2021/01/04 10:01:42;;;;;;;1.83;1.30;;;;;;;1.16;100.00;101673.19;6249631;28;20060;-78
2021/01/04 10:04:44;;;;;;;3.08;2.05;;;;;;;1.19;100.00;101691.31;6249707;28;20056;-75
2021/01/04 10:07:45;;;;;;;2.58;1.65;;;;;;;1.17;100.00;101685.25;6248819;28;20410;-74
2021/01/04 10:10:59;;;;;;;2.40;1.40;;;;;;;1.12;100.00;101674.03;6248858;28;20060;-76
2021/01/04 10:14:08;;;;;;;1.88;1.55;;;;;;;1.13;100.00;101680.94;6249669;28;20060;-76
2021/01/04 10:17:09;;;;;;;2.95;1.98;;;;;;;1.13;100.00;101681.81;6248952;28;20053;-74
2021/01/04 10:20:31;;;;;;;1.95;1.48;;;;;;;1.14;100.00;101682.69;6248124;28;20056;-75
2021/01/04 10:23:35;;;;;;;1.85;1.42;;;;;;;1.16;100.00;101686.13;6249541;28;20461;-75
2021/01/04 10:26:37;;;;;;;2.85;2.15;;;;;;;1.14;100.00;101686.16;6249026;28;20498;-75
2021/01/04 10:29:41;;;;;;;3.03;1.38;;;;;;;1.13;100.00;101683.53;6243444;28;20041;-75
2021/01/04 10:32:42;;;;;;;2.85;1.30;;;;;;;1.12;100.00;101674.91;6240703;28;20057;-75
2021/01/04 10:35:44;;;;;;;2.20;1.33;;;;;;;1.13;100.00;101679.22;6248815;28;20054;-75
2021/01/04 10:38:48;;;;;;;1.98;1.40;;;;;;;1.15;100.00;101668.88;6248480;28;20046;-75
2021/01/04 10:41:55;;;;;;;2.42;1.60;;;;;;;1.15;100.00;101667.16;6248806;28;20056;-76
2021/01/04 10:45:05;;;;;;;2.42;1.58;;;;;;;1.13;100.00;101666.28;6241790;28;20050;-75
2021/01/04 10:48:13;;;;;;;1.92;1.38;;;;;;;1.16;100.00;101658.50;6240109;28;20060;-76
2021/01/04 10:51:20;;;;;;;2.85;1.45;;;;;;;1.23;100.00;101664.56;6223891;28;20065;-76
2021/01/04 10:54:33;;;;;;;2.72;1.75;;;;;;;1.24;100.00;101658.53;6240102;28;20056;-76
2021/01/04 10:57:39;;;;;;;4.38;2.63;;;;;;;1.09;100.00;101663.69;6248633;28;20053;-75
2021/01/04 11:00:50;;;;;;;2.00;1.20;;;;;;;1.07;100.00;101658.50;6247843;28;20053;-76
2021/01/04 11:03:54;;;;;;;4.85;1.20;;;;;;;1.11;100.00;101656.81;6247722;28;20053;-79
2021/01/04 11:07:06;;;;;;;2.20;1.08;;;;;;;1.09;100.00;101653.31;6236603;28;20120;-76
2021/01/04 11:10:22;;;;;;;2.58;1.40;;;;;;;1.10;100.00;101653.34;6234080;28;20049;-75
2021/01/04 11:13:28;;;;;;;1.45;1.20;;;;;;;1.20;100.00;101644.72;6237973;28;20506;-77
2021/01/04 11:16:40;;;;;;;2.55;1.40;;;;;;;1.14;100.00;101644.72;6233643;28;20058;-76
2021/01/04 11:19:41;;;;;;;1.17;1.00;;;;;;;1.13;100.00;101640.38;6236591;28;20469;-78
2021/01/04 11:22:43;;;;;;;1.92;1.10;;;;;;;1.16;100.00;101642.97;6235559;28;20084;-76
2021/01/04 11:25:45;;;;;;;1.52;1.25;;;;;;;1.20;100.00;101643.84;6247776;28;20410;-78
2021/01/04 11:28:46;;;;;;;2.65;1.50;;;;;;;1.26;100.00;101644.69;6241459;28;20073;-76
2021/01/04 11:31:47;;;;;;;2.00;1.15;;;;;;;1.27;100.00;101643.88;6235574;28;20053;-77
2021/01/04 11:34:50;;;;;;;3.15;1.60;;;;;;;1.29;100.00;101640.41;6233687;28;20053;-77
2021/01/04 11:37:52;;;;;;;2.83;2.10;;;;;;;1.25;100.00;101629.19;6245595;28;20533;-76
2021/01/04 11:40:53;;;;;;;1.52;1.30;;;;;;;1.25;100.00;101632.63;6240845;28;20041;-77
2021/01/04 11:43:54;;;;;;;1.20;1.00;;;;;;;1.27;100.00;101632.59;6233912;28;20060;-76
2021/01/04 11:46:55;;;;;;;1.30;1.10;;;;;;;1.27;100.00;101630.91;6234094;28;20052;-77
2021/01/04 11:49:56;;;;;;;1.55;1.17;;;;;;;1.26;100.00;101628.31;6235370;28;20042;-76
2021/01/04 11:52:58;;;;;;;2.20;1.15;;;;;;;1.18;100.00;101628.34;6233466;28;20060;-76
2021/01/04 11:55:59;;;;;;;2.63;1.70;;;;;;;1.18;100.00;101630.03;6235180;28;20123;-76
2021/01/04 11:58:59;;;;;;;1.55;1.20;;;;;;;1.04;100.00;101621.41;6232801;28;20058;-76
2021/01/04 12:02:00;;;;;;;2.83;1.30;;;;;;;0.96;100.00;101616.25;6233734;28;20049;-76
2021/01/04 12:05:03;;;;;;;1.38;0.93;;;;;;;0.98;100.00;101620.56;6235333;28;20081;-76
2021/01/04 12:08:05;;;;;;;3.60;1.30;;;;;;;0.96;100.00;101613.66;6247030;28;20057;-76
2021/01/04 12:11:06;;;;;;;1.65;1.20;;;;;;;0.92;100.00;101610.22;6246125;28;20046;-77
2021/01/04 12:14:09;;;;;;;1.23;1.13;;;;;;;0.91;100.00;101599.84;6247084;28;20103;-77
2021/01/04 12:17:10;;;;;;;1.38;1.20;;;;;;;0.89;100.00;101599.00;6245368;28;20102;-77
2021/01/04 12:20:12;;;;;;;1.10;1.00;;;;;;;0.85;100.00;101597.25;6240235;28;20054;-76
2021/01/04 12:23:14;;;;;;;2.05;1.20;;;;;;;0.74;100.00;101597.25;6238379;28;20056;-76
2021/01/04 12:26:17;;;;;;;1.70;1.02;;;;;;;0.85;100.00;101592.94;6245370;28;20506;-76
2021/01/04 12:29:18;;;;;;;2.03;1.55;;;;;;;0.84;100.00;101591.22;6232690;28;20046;-75
2021/01/04 12:32:19;;;;;;;3.00;1.30;;;;;;;0.84;100.00;101586.06;6241316;28;20064;-76
2021/01/04 12:35:21;;;;;;;1.73;1.38;;;;;;;0.78;100.00;101586.06;6238739;28;20045;-76
2021/01/04 12:38:23;;;;;;;2.28;1.38;;;;;;;0.75;100.00;101583.47;6221393;28;20057;-75
2021/01/04 12:41:23;;;;;;;2.42;1.50;;;;;;;0.76;100.00;101582.59;6221741;28;20056;-73
2021/01/04 12:44:24;;;;;;;2.75;1.60;;;;;;;0.82;100.00;101582.63;6243869;28;20418;-74
2021/01/04 12:47:25;;;;;;;3.45;2.25;;;;;;;0.79;100.00;101574.84;6237271;28;20057;-76
2021/01/04 12:50:26;;;;;;;3.65;2.30;;;;;;;0.72;100.00;101566.19;6234077;28;20156;-77
2021/01/04 12:53:28;;;;;;;3.45;2.50;;;;;;;0.74;100.00;101573.97;6231541;28;20562;-77
2021/01/04 12:56:29;;;;;;;3.63;2.15;;;;;;;0.75;100.00;101581.75;6233993;28;20071;-75
2021/01/04 12:59:36;;;;;;;2.97;2.38;;;;;;;0.79;100.00;101572.25;6232499;28;20049;-75
2021/01/04 13:02:37;;;;;;;2.25;1.70;;;;;;;0.88;100.00;101580.03;6233158;28;20081;-77
2021/01/04 13:05:38;;;;;;;2.88;2.17;;;;;;;1.03;100.00;101579.13;6234529;28;20130;-77
2021/01/04 13:08:40;;;;;;;2.75;1.90;;;;;;;1.13;100.00;101577.41;6240493;28;20418;-77
2021/01/04 13:11:44;;;;;;;4.38;1.77;;;;;;;1.21;100.00;101570.50;6240841;28;20502;-77
2021/01/04 13:14:47;;;;;;;3.92;2.25;;;;;;;1.31;100.00;101572.19;6238783;28;20070;-76
2021/01/04 13:17:47;;;;;;;3.65;1.80;;;;;;;1.35;100.00;101570.47;6236622;28;20128;-77
2021/01/04 13:20:48;;;;;;;2.30;1.55;;;;;;;1.37;100.00;101579.13;6235381;28;20046;-77
2021/01/04 13:23:50;;;;;;;3.53;1.70;;;;;;;1.35;100.00;101573.91;6235879;28;20057;-77
2021/01/04 13:26:52;;;;;;;2.00;1.42;;;;;;;1.34;100.00;101571.34;6236660;28;20050;-77
2021/01/04 13:29:54;;;;;;;2.00;1.13;;;;;;;1.35;100.00;101566.16;6239001;28;20076;-77
2021/01/04 13:32:55;;;;;;;2.05;1.48;;;;;;;1.43;100.00;101572.19;6238306;28;20046;-76
2021/01/04 13:35:55;;;;;;;2.70;1.70;;;;;;;1.42;100.00;101567.00;6239793;28;20133;-78
2021/01/04 13:38:57;;;;;;;2.38;1.77;;;;;;;1.42;100.00;101567.88;6245605;28;20125;-77
2021/01/04 13:42:00;;;;;;;1.90;1.48;;;;;;;1.41;100.00;101567.84;6238644;28;20192;-77
2021/01/04 13:45:00;;;;;;;2.00;1.58;;;;;;;1.41;100.00;101568.75;6237688;28;20049;-77
2021/01/04 13:48:01;;;;;;;3.25;2.25;;;;;;;1.44;100.00;101566.13;6236729;28;20049;-76
2021/01/04 13:51:02;;;;;;;1.80;1.30;;;;;;;1.40;100.00;101572.19;6239210;28;20042;-77
2021/01/04 13:54:05;;;;;;;3.75;1.67;;;;;;;1.48;100.00;101565.25;6238972;28;20417;-77
2021/01/04 13:57:07;;;;;;;3.20;1.83;;;;;;;1.46;100.00;101564.41;6236928;28;20060;-77
2021/01/04 14:00:09;;;;;;;2.85;1.35;;;;;;;1.40;100.00;101568.72;6237570;28;20513;-77
2021/01/04 14:03:10;;;;;;;3.33;2.50;;;;;;;1.40;100.00;101561.81;6238446;28;20049;-77
2021/01/04 14:06:11;;;;;;;2.83;1.10;;;;;;;1.38;100.00;101558.38;6238879;28;20053;-74
2021/01/04 14:09:15;;;;;;;2.97;1.70;;;;;;;1.44;100.00;101562.69;6234056;28;20045;-73
2021/01/04 14:12:16;;;;;;;3.30;1.80;;;;;;;1.38;100.00;101562.69;6235955;28;20049;-74
2021/01/04 14:15:17;;;;;;;2.80;1.30;;;;;;;1.39;100.00;101556.66;6238367;28;20054;-74
2021/01/04 14:18:18;;;;;;;2.60;1.30;;;;;;;1.44;100.00;101560.09;6248285;28;20486;-71
2021/01/04 14:21:19;;;;;;;1.60;1.15;;;;;;;1.32;100.00;101555.81;6236478;28;20099;-73
2021/01/04 14:24:21;;;;;;;2.63;1.40;;;;;;;1.29;100.00;101561.00;6235227;28;20060;-76
2021/01/04 14:27:22;;;;;;;3.65;1.60;;;;;;;1.25;100.00;101559.28;6234067;28;20046;-73
2021/01/04 14:30:24;;;;;;;2.97;1.95;;;;;;;1.19;100.00;101564.47;6236587;28;20042;-74
2021/01/04 14:33:24;;;;;;;5.90;1.80;;;;;;;1.23;100.00;101555.84;6248930;28;20045;-78
2021/01/04 14:36:25;;;;;;;7.00;2.40;;;;;;;1.18;100.00;101558.44;6249134;28;20052;-78